Flight Track Log - Related Links

Times and Time Zones

All times are in EDT time to prevent confusion due to time zone crossing. See the ELJ309 flight status page for this flight to view local times or setup timezone preferences in your user account.

Time Position Orientation Groundspeed Altitude Reporting Facility
EDT Latitude Longitude Course Direction KTS MPH feet Rate Location/Type
08:41AM 27.0667 -82.4333 180° South 216 249 300  Level Tampa TRACON
08:42AM 27.0500 -82.4333 180° South 174 200 900 2,000 Climbing Tampa TRACON
08:44AM 26.9745 -82.3578 138° Southeast  Level FlightAware Approximate
08:51AM 26.7442 -82.0609 131° Southeast  Level FlightAware Approximate
08:52AM 26.7105 -82.0172 131° Southeast  Level FlightAware Approximate
08:53AM 26.6768 -81.9735 131° Southeast  Level FlightAware Approximate
08:54AM 26.6431 -81.9299 131° Southeast  Level FlightAware Approximate
08:55AM 26.6094 -81.8863 131° Southeast  Level FlightAware Approximate
08:56AM 26.5756 -81.8427 131° Southeast  Level FlightAware Approximate
08:57AM 26.5419 -81.7991 131° Southeast  Level FlightAware Approximate
08:58AM 26.5036 -81.7667 180° South  Level FlightAware Approximate
08:59AM 26.4520 -81.7667 180° South  Level FlightAware Approximate
09:00AM 26.4005 -81.7667 180° South  Level FlightAware Approximate
09:01AM 26.3489 -81.7667 180° South  Level FlightAware Approximate
09:02AM 26.2974 -81.7667 180° South  Level FlightAware Approximate
09:03AM 26.2459 -81.7667 180° South  Level FlightAware Approximate
09:04AM 26.1943 -81.7667 180° South  Level FlightAware Approximate
09:05AM 26.1500 -81.7667 180° South  Level FlightAware Approximate
09:06AM 26.1524 -81.7756 180° South  Level Estimated
09:07AM 26.1524 -81.7756 180° South  Level Estimated
09:08AM 26.1524 -81.7756 180° South  Level Estimated
09:09AM 26.1524 -81.7756 180° South  Level Estimated
09:10AM 26.1524 -81.7756 180° South  Level Estimated

Login

Don't have an account? Register now (free) for customized features, flight alerts, and more!